createdAt,value
2024-01-19T00:00:06.682Z,100135.56
2024-01-19T00:02:34.041Z,100147.09
2024-01-19T00:05:02.049Z,100143.38
2024-01-19T00:07:29.509Z,100143.13
2024-01-19T00:09:57.212Z,100148.53
2024-01-19T00:12:24.660Z,100154.81
2024-01-19T00:14:52.120Z,100160.06
2024-01-19T00:17:19.585Z,100159.25
2024-01-19T00:19:47.022Z,100164.56
2024-01-19T00:22:14.461Z,100170.09
2024-01-19T00:24:41.894Z,100167.66
2024-01-19T00:27:09.277Z,100169.19
2024-01-19T00:29:36.717Z,100178.25
2024-01-19T00:32:04.284Z,100178.22
2024-01-19T00:34:31.731Z,100186.66
2024-01-19T00:36:59.077Z,100182.28
2024-01-19T00:39:26.512Z,100182.34
2024-01-19T00:41:54.049Z,100188.56
2024-01-19T00:44:22.858Z,100185.16
2024-01-19T00:46:51.220Z,100187.47
2024-01-19T00:49:19.411Z,100185.56
2024-01-19T00:51:46.957Z,100193.66
2024-01-19T00:54:15.642Z,100191.44
2024-01-19T00:56:43.134Z,100195.22
2024-01-19T00:59:10.734Z,100186.47
2024-01-19T01:01:38.202Z,100193.25
2024-01-19T01:04:07.192Z,100192.69
2024-01-19T01:06:34.713Z,100196.25
2024-01-19T01:09:02.314Z,100192.28
2024-01-19T01:11:29.973Z,100196.44
2024-01-19T01:13:57.581Z,100192.25
2024-01-19T01:16:25.157Z,100197.56
2024-01-19T01:18:52.584Z,100196.50
2024-01-19T01:21:19.971Z,100199.16
2024-01-19T01:23:48.595Z,100209.00
2024-01-19T01:26:16.100Z,100214.16
2024-01-19T01:28:43.511Z,100210.03
2024-01-19T01:31:11.370Z,100216.25
2024-01-19T01:33:38.971Z,100213.97
2024-01-19T01:36:06.980Z,100218.84
2024-01-19T01:38:34.675Z,100223.16
2024-01-19T01:41:02.191Z,100220.69
2024-01-19T01:43:29.892Z,100218.22
2024-01-19T01:45:57.351Z,100222.97
2024-01-19T01:48:27.739Z,100232.59
2024-01-19T01:50:57.399Z,100236.84
2024-01-19T01:53:25.813Z,100224.78
2024-01-19T01:55:54.110Z,100239.59
2024-01-19T01:58:22.650Z,100236.06
2024-01-19T02:00:51.412Z,100241.25
2024-01-19T02:03:19.101Z,100242.41
2024-01-19T02:05:46.975Z,100237.09
2024-01-19T02:08:14.797Z,100240.13
2024-01-19T02:10:42.433Z,100244.53
2024-01-19T02:13:09.991Z,100245.16
2024-01-19T02:15:39.202Z,100247.72
2024-01-19T02:18:07.282Z,100251.53
2024-01-19T02:20:34.916Z,100254.28
2024-01-19T02:23:06.235Z,100254.56
2024-01-19T02:25:33.780Z,100263.22
2024-01-19T02:28:01.677Z,100265.13
2024-01-19T02:30:29.581Z,100267.41
2024-01-19T02:32:57.472Z,100263.50
2024-01-19T02:35:25.204Z,100271.72
2024-01-19T02:37:53.206Z,100277.56
2024-01-19T02:40:20.614Z,100271.28
2024-01-19T02:42:48.021Z,100269.38
2024-01-19T02:45:15.813Z,100272.63
2024-01-19T02:47:43.273Z,100271.25
2024-01-19T02:50:11.245Z,100262.53
2024-01-19T02:52:38.826Z,100267.47
2024-01-19T02:55:07.497Z,100265.94
2024-01-19T02:57:34.951Z,100267.25
2024-01-19T03:00:02.420Z,100261.47
2024-01-19T03:02:29.860Z,100260.41
2024-01-19T03:04:57.427Z,100268.38
2024-01-19T03:07:24.806Z,100257.59
2024-01-19T03:09:52.156Z,100264.13
2024-01-19T03:12:20.004Z,100255.56
2024-01-19T03:14:47.440Z,100259.59
2024-01-19T03:17:15.390Z,100264.56
2024-01-19T03:19:42.782Z,100272.78
2024-01-19T03:22:10.328Z,100275.72
2024-01-19T03:24:37.739Z,100270.66
2024-01-19T03:27:05.461Z,100268.69
2024-01-19T03:29:32.842Z,100270.50
2024-01-19T03:32:00.227Z,100275.59
2024-01-19T03:34:27.652Z,100272.41
2024-01-19T03:36:55.111Z,100276.53
2024-01-19T03:39:24.676Z,100283.31
2024-01-19T03:41:54.687Z,100274.88
2024-01-19T03:44:22.103Z,100276.78
2024-01-19T03:46:49.446Z,100281.66
2024-01-19T03:49:16.908Z,100286.41
2024-01-19T03:52:08.036Z,100287.03
2024-01-19T03:54:38.021Z,100290.50
2024-01-19T03:57:09.279Z,100284.56
2024-01-19T03:59:36.611Z,100289.47
2024-01-19T04:02:06.232Z,100283.56
2024-01-19T04:04:34.229Z,100283.16
2024-01-19T04:07:01.884Z,100280.84
2024-01-19T04:09:29.384Z,100280.03
2024-01-19T04:11:57.404Z,100284.44
2024-01-19T04:14:25.087Z,100285.69
2024-01-19T04:16:52.511Z,100283.94
2024-01-19T04:19:20.036Z,100276.19
2024-01-19T04:21:47.524Z,100278.66
2024-01-19T04:24:15.415Z,100279.69
2024-01-19T04:26:42.844Z,100284.16
2024-01-19T04:29:11.354Z,100285.50
2024-01-19T04:31:38.877Z,100281.63
2024-01-19T04:34:06.493Z,100289.84
2024-01-19T04:36:33.956Z,100286.13
2024-01-19T04:39:01.438Z,100291.03
2024-01-19T04:41:28.894Z,100287.78
2024-01-19T04:43:56.700Z,100288.75
2024-01-19T04:46:24.161Z,100283.59
2024-01-19T04:48:51.589Z,100282.28
2024-01-19T04:51:18.956Z,100289.84
2024-01-19T04:53:46.403Z,100281.34
2024-01-19T04:56:13.894Z,100284.97
2024-01-19T04:58:41.873Z,100303.63
2024-01-19T05:01:09.906Z,100301.84
2024-01-19T05:03:37.628Z,100305.72
2024-01-19T05:06:05.488Z,100311.06
2024-01-19T05:08:32.973Z,100309.03
2024-01-19T05:11:00.323Z,100313.59
2024-01-19T05:13:27.745Z,100324.00
2024-01-19T05:15:55.117Z,100311.81
2024-01-19T05:18:22.833Z,100314.13
2024-01-19T05:20:50.998Z,100320.63
2024-01-19T05:23:18.511Z,100317.81
2024-01-19T05:25:46.154Z,100320.75
2024-01-19T05:28:13.510Z,100316.16
2024-01-19T05:30:40.917Z,100314.72
2024-01-19T05:33:08.378Z,100316.47
2024-01-19T05:35:36.017Z,100325.56
2024-01-19T05:38:04.468Z,100329.19
2024-01-19T05:40:31.850Z,100336.53
2024-01-19T05:42:59.243Z,100335.00
2024-01-19T05:45:26.828Z,100339.75
2024-01-19T05:47:54.926Z,100342.13
2024-01-19T05:50:22.385Z,100332.59
2024-01-19T05:52:49.863Z,100330.03
2024-01-19T05:55:17.315Z,100328.63
2024-01-19T05:57:44.720Z,100335.84
2024-01-19T06:00:15.974Z,100336.03
2024-01-19T06:02:43.502Z,100341.59
2024-01-19T06:05:10.960Z,100340.16
2024-01-19T06:07:38.397Z,100344.84
2024-01-19T06:10:07.776Z,100340.53
2024-01-19T06:12:35.202Z,100359.34
2024-01-19T06:15:02.742Z,100348.97
2024-01-19T06:17:30.324Z,100353.81
2024-01-19T06:19:57.870Z,100350.34
2024-01-19T06:22:25.633Z,100351.50
2024-01-19T06:24:53.089Z,100356.84
2024-01-19T06:27:23.718Z,100354.88
2024-01-19T06:29:52.643Z,100359.78
2024-01-19T06:32:20.723Z,100370.38
2024-01-19T06:34:48.282Z,100363.44
2024-01-19T06:37:15.825Z,100368.25
2024-01-19T06:39:47.315Z,100374.38
2024-01-19T06:42:15.637Z,100375.72
2024-01-19T06:44:44.786Z,100388.38
2024-01-19T06:47:12.650Z,100378.84
2024-01-19T06:49:40.735Z,100381.25
2024-01-19T06:52:08.554Z,100378.06
2024-01-19T06:54:35.908Z,100389.00
2024-01-19T06:57:03.669Z,100390.09
2024-01-19T06:59:31.096Z,100396.75
2024-01-19T07:01:58.524Z,100404.09
2024-01-19T07:04:25.880Z,100395.81
2024-01-19T07:06:53.340Z,100402.44
2024-01-19T07:09:21.431Z,100393.19
2024-01-19T07:11:49.153Z,100411.94
2024-01-19T07:14:16.612Z,100402.69
2024-01-19T07:16:45.119Z,100398.78
2024-01-19T07:19:13.012Z,100414.00
2024-01-19T07:21:41.931Z,100407.13
2024-01-19T07:24:13.503Z,100414.97
2024-01-19T07:26:42.707Z,100413.22
2024-01-19T07:29:10.771Z,100421.56
2024-01-19T07:31:38.953Z,100419.50
2024-01-19T07:34:06.723Z,100417.09
2024-01-19T07:36:34.364Z,100425.56
2024-01-19T07:39:01.924Z,100423.31
2024-01-19T07:41:29.360Z,100422.28
2024-01-19T07:43:57.067Z,100434.34
2024-01-19T07:46:24.582Z,100430.41
2024-01-19T07:48:52.252Z,100436.69
2024-01-19T07:51:21.382Z,100437.47
2024-01-19T07:53:48.963Z,100441.78
2024-01-19T07:56:16.392Z,100443.81
2024-01-19T07:58:46.835Z,100452.81
2024-01-19T08:01:14.391Z,100446.22
2024-01-19T08:03:42.378Z,100450.81
2024-01-19T08:06:09.999Z,100453.81
2024-01-19T08:08:37.518Z,100454.81
2024-01-19T08:11:05.484Z,100467.28
2024-01-19T08:13:32.899Z,100462.19
2024-01-19T08:16:00.400Z,100463.94
2024-01-19T08:18:28.037Z,100457.97
2024-01-19T08:20:55.855Z,100466.19
2024-01-19T08:23:23.344Z,100466.44
2024-01-19T08:25:50.829Z,100470.22
2024-01-19T08:28:18.238Z,100467.44
2024-01-19T08:30:45.766Z,100481.47
2024-01-19T08:33:14.524Z,100481.44
2024-01-19T08:35:42.058Z,100481.38
2024-01-19T08:38:10.541Z,100487.13
2024-01-19T08:40:40.248Z,100493.56
2024-01-19T08:43:07.634Z,100489.44
2024-01-19T08:45:35.210Z,100496.34
2024-01-19T08:48:04.304Z,100503.28
2024-01-19T08:50:31.834Z,100502.09
2024-01-19T08:53:00.804Z,100506.50
2024-01-19T08:55:28.231Z,100501.56
2024-01-19T08:57:55.617Z,100506.38
2024-01-19T09:00:23.697Z,100494.22
2024-01-19T09:02:59.839Z,100516.75
2024-01-19T09:05:31.835Z,100512.63
2024-01-19T09:07:59.604Z,100520.13
2024-01-19T09:10:27.258Z,100513.72
2024-01-19T09:12:55.099Z,100534.19
2024-01-19T09:15:23.014Z,100530.50
2024-01-19T09:17:50.508Z,100526.97
2024-01-19T09:20:18.058Z,100543.00
2024-01-19T09:22:45.449Z,100541.22
2024-01-19T09:25:16.344Z,100539.88
2024-01-19T09:27:43.872Z,100547.47
2024-01-19T09:30:11.856Z,100539.84
2024-01-19T09:32:42.529Z,100553.16
2024-01-19T09:35:10.443Z,100562.59
2024-01-19T09:37:37.918Z,100552.31
2024-01-19T09:40:06.034Z,100564.22
2024-01-19T09:42:36.009Z,100568.09
2024-01-19T09:45:06.807Z,100574.00
2024-01-19T09:48:25.070Z,100571.03
2024-01-19T09:50:54.804Z,100578.91
2024-01-19T09:53:36.427Z,100583.84
2024-01-19T09:56:04.116Z,100588.78
2024-01-19T09:58:32.365Z,100589.03
2024-01-19T10:01:01.652Z,100595.53
2024-01-19T10:03:31.024Z,100592.25
2024-01-19T10:05:58.821Z,100606.88
2024-01-19T10:08:27.157Z,100613.88
2024-01-19T10:10:56.779Z,100604.78
2024-01-19T10:13:24.136Z,100603.38
2024-01-19T10:15:51.644Z,100618.84
2024-01-19T10:18:20.832Z,100608.34
2024-01-19T10:20:53.403Z,100599.06
2024-01-19T10:23:24.938Z,100622.56
2024-01-19T10:25:53.020Z,100613.69
2024-01-19T10:28:36.739Z,100618.34
2024-01-19T10:31:20.194Z,100629.41
2024-01-19T10:33:59.597Z,100626.56
2024-01-19T10:36:28.323Z,100629.44
2024-01-19T10:39:15.942Z,100628.00
2024-01-19T10:41:43.558Z,100629.50
2024-01-19T10:44:18.477Z,100633.00
2024-01-19T10:46:46.512Z,100642.63
2024-01-19T10:49:20.515Z,100645.81
2024-01-19T10:51:49.080Z,100649.47
2024-01-19T10:54:26.264Z,100654.47
2024-01-19T10:57:10.945Z,100651.84
2024-01-19T10:59:38.566Z,100651.94
2024-01-19T11:02:06.397Z,100660.75
2024-01-19T11:04:40.965Z,100670.63
2024-01-19T11:07:09.143Z,100670.31
2024-01-19T11:09:36.818Z,100676.97
2024-01-19T11:12:06.157Z,100675.09
2024-01-19T11:14:36.827Z,100683.75
2024-01-19T11:17:04.531Z,100677.41
2024-01-19T11:19:32.881Z,100686.06
2024-01-19T11:22:02.351Z,100685.22
2024-01-19T11:24:38.067Z,100682.16
2024-01-19T11:27:25.074Z,100689.50
2024-01-19T11:29:56.646Z,100689.50
2024-01-19T11:32:24.183Z,100689.81
2024-01-19T11:34:52.323Z,100694.50
2024-01-19T11:37:48.607Z,100694.34
2024-01-19T11:40:25.939Z,100690.22
2024-01-19T11:42:54.011Z,100691.78
2024-01-19T11:45:30.022Z,100697.94
2024-01-19T11:47:58.374Z,100701.22
2024-01-19T11:50:48.669Z,100692.31
2024-01-19T11:53:16.600Z,100689.94
2024-01-19T11:55:47.512Z,100702.13
2024-01-19T11:58:41.131Z,100688.88
2024-01-19T12:01:12.067Z,100703.34
2024-01-19T12:03:41.731Z,100702.28
2024-01-19T12:06:10.562Z,100699.66
2024-01-19T12:08:38.231Z,100706.88
2024-01-19T12:11:12.554Z,100698.00
2024-01-19T12:13:48.992Z,100706.03
2024-01-19T12:16:24.362Z,100705.56
2024-01-19T12:18:56.085Z,100710.59
2024-01-19T12:21:24.548Z,100725.88
2024-01-19T12:23:58.307Z,100727.88
2024-01-19T12:26:27.654Z,100734.66
2024-01-19T12:28:57.203Z,100735.38
2024-01-19T12:31:38.673Z,100738.47
2024-01-19T12:34:17.293Z,100734.97
2024-01-19T12:36:44.858Z,100739.56
2024-01-19T12:39:16.320Z,100742.94
2024-01-19T12:41:44.718Z,100738.84
2024-01-19T12:44:13.600Z,100755.53
2024-01-19T12:46:50.833Z,100754.09
2024-01-19T12:49:18.349Z,100751.59
2024-01-19T12:51:46.734Z,100762.91
2024-01-19T12:54:16.644Z,100766.56
2024-01-19T12:56:44.080Z,100763.19
2024-01-19T12:59:20.688Z,100762.09
2024-01-19T13:01:55.672Z,100754.69
2024-01-19T13:04:24.499Z,100759.22
2024-01-19T13:06:54.517Z,100775.44
2024-01-19T13:09:23.332Z,100763.03
2024-01-19T13:11:50.876Z,100775.25
2024-01-19T13:14:25.970Z,100769.50
2024-01-19T13:16:57.490Z,100786.06
2024-01-19T13:19:25.583Z,100779.16
2024-01-19T13:21:56.104Z,100784.22
2024-01-19T13:24:29.798Z,100788.16
2024-01-19T13:27:04.335Z,100786.38
2024-01-19T13:29:33.356Z,100786.09
2024-01-19T13:32:01.560Z,100795.59
2024-01-19T13:34:32.136Z,100795.13
2024-01-19T13:37:00.611Z,100801.38
2024-01-19T13:39:29.725Z,100808.81
2024-01-19T13:41:59.303Z,100823.03
2024-01-19T13:44:27.151Z,100812.72
2024-01-19T13:46:54.710Z,100828.47
2024-01-19T13:49:22.275Z,100833.25
2024-01-19T13:51:49.921Z,100843.50
2024-01-19T13:54:17.280Z,100841.91
2024-01-19T13:56:44.606Z,100840.13
2024-01-19T13:59:12.070Z,100842.38
2024-01-19T14:01:39.708Z,100856.09
2024-01-19T14:04:11.606Z,100845.38
2024-01-19T14:06:39.049Z,100860.50
2024-01-19T14:09:06.593Z,100866.16
2024-01-19T14:11:34.763Z,100874.91
2024-01-19T14:14:03.349Z,100884.63
2024-01-19T14:16:31.032Z,100872.81
2024-01-19T14:18:58.955Z,100874.91
2024-01-19T14:21:26.511Z,100883.22
2024-01-19T14:23:53.946Z,100883.41
2024-01-19T14:26:21.880Z,100880.25
2024-01-19T14:28:49.367Z,100884.25
2024-01-19T14:31:17.529Z,100891.38
2024-01-19T14:33:45.613Z,100882.56
2024-01-19T14:36:13.214Z,100893.03
2024-01-19T14:38:40.625Z,100900.91
2024-01-19T14:41:08.226Z,100895.31
2024-01-19T14:43:35.890Z,100903.38
2024-01-19T14:46:03.930Z,100900.91
2024-01-19T14:48:31.438Z,100903.38
2024-01-19T14:50:59.060Z,100911.25
2024-01-19T14:53:27.918Z,100912.97
2024-01-19T14:55:55.873Z,100914.22
2024-01-19T14:58:23.712Z,100919.72
2024-01-19T15:00:51.175Z,100922.56
2024-01-19T15:03:18.622Z,100929.00
2024-01-19T15:05:45.986Z,100931.88
2024-01-19T15:08:13.470Z,100937.44
2024-01-19T15:10:40.956Z,100933.38
2024-01-19T15:13:09.889Z,100932.66
2024-01-19T15:15:38.509Z,100943.53
2024-01-19T15:18:07.465Z,100941.09
2024-01-19T15:20:34.838Z,100945.56
2024-01-19T15:23:04.025Z,100954.41
2024-01-19T15:25:31.455Z,100945.03
2024-01-19T15:27:58.958Z,100951.06
2024-01-19T15:30:33.388Z,100957.25
2024-01-19T15:33:08.534Z,100960.97
2024-01-19T15:35:35.930Z,100960.06
2024-01-19T15:38:03.370Z,100956.63
2024-01-19T15:40:30.696Z,100959.06
2024-01-19T15:42:58.069Z,100957.56
2024-01-19T15:45:27.724Z,100959.84
2024-01-19T15:47:56.933Z,100959.25
2024-01-19T15:50:25.143Z,100955.25
2024-01-19T15:52:56.004Z,100959.66
2024-01-19T15:55:24.757Z,100961.94
2024-01-19T15:57:52.168Z,100966.00
2024-01-19T16:00:20.020Z,100972.06
2024-01-19T16:02:47.378Z,100963.41
2024-01-19T16:05:16.330Z,100974.50
2024-01-19T16:07:44.003Z,100969.34
2024-01-19T16:10:11.635Z,100978.28
2024-01-19T16:12:39.122Z,100980.06
2024-01-19T16:15:07.159Z,100974.09
2024-01-19T16:17:39.174Z,100978.59
2024-01-19T16:20:09.877Z,100982.03
2024-01-19T16:22:37.410Z,100984.78
2024-01-19T16:25:07.914Z,100986.28
2024-01-19T16:27:36.450Z,100992.03
2024-01-19T16:30:05.032Z,100982.88
2024-01-19T16:32:32.481Z,100991.00
2024-01-19T16:35:00.079Z,100989.03
2024-01-19T16:37:27.678Z,100990.00
2024-01-19T16:39:55.073Z,100995.22
2024-01-19T16:42:22.385Z,100995.59
2024-01-19T16:44:49.737Z,100998.94
2024-01-19T16:47:17.268Z,101004.13
2024-01-19T16:49:44.699Z,101011.25
2024-01-19T16:52:13.380Z,101014.22
2024-01-19T16:54:44.679Z,101026.16
2024-01-19T16:57:12.663Z,101025.72
2024-01-19T16:59:40.170Z,101019.28
2024-01-19T17:02:07.627Z,101021.06
2024-01-19T17:04:38.282Z,101021.44
2024-01-19T17:07:05.818Z,101023.47
2024-01-19T17:09:35.854Z,101021.53
2024-01-19T17:12:03.495Z,101020.97
2024-01-19T17:14:34.562Z,101024.34
2024-01-19T17:17:01.920Z,101027.00
2024-01-19T17:19:29.908Z,101035.56
2024-01-19T17:21:57.369Z,101038.31
2024-01-19T17:24:25.411Z,101037.78
2024-01-19T17:26:53.173Z,101045.34
2024-01-19T17:29:21.025Z,101044.03
2024-01-19T17:31:48.759Z,101041.97
2024-01-19T17:34:16.205Z,101044.78
2024-01-19T17:36:43.728Z,101047.03
2024-01-19T17:39:11.281Z,101041.66
2024-01-19T17:41:42.990Z,101054.34
2024-01-19T17:44:11.015Z,101050.94
2024-01-19T17:46:38.638Z,101052.13
2024-01-19T17:49:06.175Z,101048.50
2024-01-19T17:51:33.737Z,101055.97
2024-01-19T17:54:01.215Z,101056.03
2024-01-19T17:56:28.736Z,101062.03
2024-01-19T17:58:56.231Z,101063.25
2024-01-19T18:01:24.060Z,101069.84
2024-01-19T18:03:51.663Z,101068.94
2024-01-19T18:06:21.681Z,101070.53
2024-01-19T18:08:51.174Z,101071.31
2024-01-19T18:11:18.784Z,101071.13
2024-01-19T18:13:46.325Z,101082.00
2024-01-19T18:16:13.796Z,101084.06
2024-01-19T18:18:41.415Z,101093.09
2024-01-19T18:21:09.387Z,101096.47
2024-01-19T18:23:36.744Z,101098.97
2024-01-19T18:26:04.812Z,101109.03
2024-01-19T18:28:32.426Z,101112.63
2024-01-19T18:31:00.361Z,101108.50
2024-01-19T18:33:27.991Z,101117.41
2024-01-19T18:35:55.606Z,101124.78
2024-01-19T18:38:23.015Z,101127.50
2024-01-19T18:40:50.428Z,101124.22
2024-01-19T18:43:17.846Z,101119.53
2024-01-19T18:45:45.226Z,101127.75
2024-01-19T18:48:12.766Z,101125.03
2024-01-19T18:50:40.284Z,101126.47
2024-01-19T18:53:09.289Z,101126.06
2024-01-19T18:55:37.070Z,101137.00
2024-01-19T18:58:07.503Z,101128.66
2024-01-19T19:00:37.140Z,101124.28
2024-01-19T19:03:06.219Z,101135.31
2024-01-19T19:05:36.471Z,101137.13
2024-01-19T19:08:07.753Z,101133.31
2024-01-19T19:10:37.751Z,101137.59
2024-01-19T19:13:07.319Z,101135.66
2024-01-19T19:15:37.517Z,101135.72
2024-01-19T19:18:05.819Z,101139.72
2024-01-19T19:20:33.616Z,101150.97
2024-01-19T19:23:02.547Z,101155.13
2024-01-19T19:25:30.028Z,101159.81
2024-01-19T19:27:57.897Z,101154.25
2024-01-19T19:30:26.588Z,101161.59
2024-01-19T19:32:54.694Z,101163.66
2024-01-19T19:35:22.135Z,101168.16
2024-01-19T19:37:49.640Z,101172.44
2024-01-19T19:40:17.161Z,101175.50
2024-01-19T19:42:44.583Z,101181.84
2024-01-19T19:45:14.620Z,101174.56
2024-01-19T19:47:42.490Z,101179.75
2024-01-19T19:50:11.352Z,101177.78
2024-01-19T19:52:39.884Z,101194.69
2024-01-19T19:55:07.881Z,101183.06
2024-01-19T19:57:35.264Z,101184.22
2024-01-19T20:00:02.834Z,101178.56
2024-01-19T20:02:30.192Z,101171.59
2024-01-19T20:04:57.559Z,101176.72
2024-01-19T20:07:24.958Z,101178.97
2024-01-19T20:09:52.635Z,101183.53
2024-01-19T20:12:20.131Z,101182.44
2024-01-19T20:14:47.974Z,101184.59
2024-01-19T20:17:15.685Z,101184.88
2024-01-19T20:19:48.038Z,101188.81
2024-01-19T20:22:15.529Z,101194.38
2024-01-19T20:24:43.253Z,101196.13
2024-01-19T20:27:12.674Z,101196.47
2024-01-19T20:29:42.905Z,101194.38
2024-01-19T20:32:10.959Z,101202.84
2024-01-19T20:34:40.508Z,101201.41
2024-01-19T20:37:08.480Z,101200.81
2024-01-19T20:39:36.139Z,101197.44
2024-01-19T20:42:04.275Z,101198.31
2024-01-19T20:44:31.669Z,101199.75
2024-01-19T20:46:59.171Z,101202.78
2024-01-19T20:49:27.022Z,101209.19
2024-01-19T20:51:54.434Z,101203.91
2024-01-19T20:54:25.796Z,101198.13
2024-01-19T20:56:54.126Z,101199.41
2024-01-19T20:59:24.097Z,101197.22
2024-01-19T21:01:51.666Z,101210.13
2024-01-19T21:04:19.311Z,101200.97
2024-01-19T21:06:47.005Z,101207.34
2024-01-19T21:09:14.573Z,101200.19
2024-01-19T21:11:42.404Z,101206.59
2024-01-19T21:14:10.855Z,101201.38
2024-01-19T21:16:38.592Z,101201.09
2024-01-19T21:19:08.931Z,101206.97
2024-01-19T21:21:37.777Z,101206.25
2024-01-19T21:24:05.845Z,101191.28
2024-01-19T21:26:34.613Z,101197.09
2024-01-19T21:29:03.414Z,101198.03
2024-01-19T21:31:30.915Z,101190.69
2024-01-19T21:33:59.357Z,101195.28
2024-01-19T21:36:26.868Z,101195.41
2024-01-19T21:38:54.431Z,101196.53
2024-01-19T21:41:22.387Z,101195.53
2024-01-19T21:43:49.849Z,101200.19
2024-01-19T21:46:17.411Z,101196.19
2024-01-19T21:48:44.926Z,101191.13
2024-01-19T21:51:12.454Z,101197.19
2024-01-19T21:53:43.339Z,101203.91
2024-01-19T21:56:14.452Z,101209.47
2024-01-19T21:58:41.969Z,101187.81
2024-01-19T22:01:17.377Z,101207.03
2024-01-19T22:03:47.230Z,101215.84
2024-01-19T22:06:14.801Z,101225.22
2024-01-19T22:08:42.468Z,101219.28
2024-01-19T22:11:10.339Z,101219.81
2024-01-19T22:13:37.851Z,101224.78
2024-01-19T22:16:06.173Z,101235.50
2024-01-19T22:18:38.427Z,101227.81
2024-01-19T22:21:07.021Z,101237.47
2024-01-19T22:23:40.020Z,101244.50
2024-01-19T22:26:10.507Z,101237.84
2024-01-19T22:28:38.027Z,101240.38
2024-01-19T22:31:07.517Z,101249.22
2024-01-19T22:33:38.175Z,101246.19
2024-01-19T22:36:15.066Z,101243.03
2024-01-19T22:38:46.434Z,101259.38
2024-01-19T22:41:17.377Z,101261.81
2024-01-19T22:43:45.159Z,101262.72
2024-01-19T22:46:12.891Z,101273.84
2024-01-19T22:48:40.439Z,101274.88
2024-01-19T22:51:08.367Z,101272.47
2024-01-19T22:53:36.017Z,101284.53
2024-01-19T22:56:11.129Z,101287.41
2024-01-19T22:58:39.524Z,101274.63
2024-01-19T23:01:10.512Z,101286.28
2024-01-19T23:03:38.289Z,101285.69
2024-01-19T23:06:06.246Z,101302.00
2024-01-19T23:08:33.890Z,101292.78
2024-01-19T23:11:01.455Z,101301.56
2024-01-19T23:13:28.976Z,101299.13
2024-01-19T23:15:56.518Z,101300.84
2024-01-19T23:18:24.486Z,101303.34
2024-01-19T23:20:52.348Z,101306.66
2024-01-19T23:23:20.562Z,101299.97
2024-01-19T23:25:48.059Z,101303.88
2024-01-19T23:28:15.804Z,101315.03
2024-01-19T23:30:43.297Z,101313.84
2024-01-19T23:33:11.300Z,101309.19
2024-01-19T23:35:38.875Z,101310.69
2024-01-19T23:38:06.928Z,101306.22
2024-01-19T23:40:34.373Z,101312.03
2024-01-19T23:43:01.952Z,101310.69
2024-01-19T23:45:29.456Z,101318.34
2024-01-19T23:47:58.038Z,101315.69
2024-01-19T23:50:26.433Z,101314.88
2024-01-19T23:52:53.817Z,101310.38
2024-01-19T23:55:21.417Z,101314.66
2024-01-19T23:57:48.866Z,101316.13
